createdAt,value
2022-12-14T00:01:45.003Z,14.35
2022-12-14T00:04:17.320Z,13.20
2022-12-14T00:06:44.990Z,13.48
2022-12-14T00:09:12.275Z,13.10
2022-12-14T00:11:39.573Z,14.30
2022-12-14T00:14:07.029Z,14.15
2022-12-14T00:17:36.849Z,14.18
2022-12-14T00:20:08.483Z,14.43
2022-12-14T00:22:35.824Z,13.20
2022-12-14T00:25:03.490Z,11.75
2022-12-14T00:27:30.689Z,13.13
2022-12-14T00:29:57.904Z,11.75
2022-12-14T00:32:25.173Z,13.43
2022-12-14T00:34:52.399Z,12.77
2022-12-14T00:37:19.672Z,12.65
2022-12-14T00:39:46.998Z,12.55
2022-12-14T00:42:14.361Z,12.98
2022-12-14T00:44:41.650Z,11.57
2022-12-14T00:47:08.861Z,11.27
2022-12-14T00:49:36.201Z,11.98
2022-12-14T00:52:03.489Z,13.23
2022-12-14T00:54:30.739Z,11.60
2022-12-14T00:56:58.007Z,12.05
2022-12-14T00:59:27.378Z,11.20
2022-12-14T01:01:54.901Z,10.68
2022-12-14T01:04:24.494Z,11.88
2022-12-14T01:06:53.245Z,12.65
2022-12-14T01:09:22.671Z,11.18
2022-12-14T01:11:49.913Z,10.98
2022-12-14T01:14:19.860Z,11.85
2022-12-14T01:16:47.176Z,10.73
2022-12-14T01:19:15.973Z,10.32
2022-12-14T01:21:43.313Z,10.73
2022-12-14T01:24:10.562Z,10.73
2022-12-14T01:26:39.789Z,10.73
2022-12-14T01:29:07.952Z,9.20
2022-12-14T01:31:38.040Z,10.00
2022-12-14T01:34:06.215Z,9.65
2022-12-14T01:36:35.084Z,10.95
2022-12-14T01:39:16.372Z,10.02
2022-12-14T01:41:47.548Z,9.88
2022-12-14T01:44:17.865Z,11.48
2022-12-14T01:46:56.175Z,11.15
2022-12-14T01:49:28.499Z,9.73
2022-12-14T01:52:09.348Z,9.57
2022-12-14T01:54:44.131Z,10.63
2022-12-14T01:57:17.698Z,9.73
2022-12-14T01:59:47.210Z,10.13
2022-12-14T02:02:17.343Z,9.75
2022-12-14T02:04:51.522Z,9.93
2022-12-14T02:07:19.044Z,11.23
2022-12-14T02:09:48.107Z,9.20
2022-12-14T02:12:31.849Z,9.70
2022-12-14T02:15:00.643Z,9.57
2022-12-14T02:17:29.098Z,8.48
2022-12-14T02:19:58.241Z,10.65
2022-12-14T02:23:03.400Z,9.18
2022-12-14T02:26:07.335Z,9.20
2022-12-14T02:29:16.446Z,9.15
2022-12-14T02:31:56.474Z,9.65
2022-12-14T02:34:42.154Z,9.02
2022-12-14T02:37:18.301Z,9.90
2022-12-14T02:40:11.301Z,9.93
2022-12-14T02:42:54.765Z,9.35
2022-12-14T02:45:33.346Z,7.78
2022-12-14T02:48:33.724Z,8.35
2022-12-14T02:51:22.902Z,9.32
2022-12-14T02:54:00.405Z,8.70
2022-12-14T02:56:42.715Z,9.95
2022-12-14T02:59:10.594Z,10.25
2022-12-14T03:01:39.922Z,8.82
2022-12-14T03:04:07.794Z,10.25
2022-12-14T03:06:35.159Z,8.95
2022-12-14T03:09:06.819Z,8.80
2022-12-14T03:11:49.546Z,11.30
2022-12-14T03:14:22.826Z,8.90
2022-12-14T03:16:52.026Z,8.32
2022-12-14T03:19:38.051Z,9.48
2022-12-14T03:22:20.633Z,8.70
2022-12-14T03:24:56.585Z,8.98
2022-12-14T03:27:30.225Z,9.05
2022-12-14T03:30:02.923Z,9.70
2022-12-14T03:32:33.611Z,8.38
2022-12-14T03:35:13.303Z,9.23
2022-12-14T03:37:59.598Z,9.00
2022-12-14T03:40:58.768Z,8.38
2022-12-14T03:43:50.126Z,9.68
2022-12-14T03:47:03.096Z,9.23
2022-12-14T03:49:39.564Z,8.25
2022-12-14T03:52:35.944Z,9.60
2022-12-14T03:55:27.405Z,9.15
2022-12-14T03:58:27.782Z,9.05
2022-12-14T04:00:58.624Z,9.18
2022-12-14T04:03:33.864Z,9.38
2022-12-14T04:06:07.930Z,9.63
2022-12-14T04:08:49.934Z,9.13
2022-12-14T04:11:37.426Z,9.02
2022-12-14T04:14:35.040Z,9.73
2022-12-14T04:17:26.346Z,9.57
2022-12-14T04:20:02.606Z,10.00
2022-12-14T04:22:34.575Z,10.77
2022-12-14T04:25:30.179Z,8.88
2022-12-14T04:28:35.420Z,9.40
2022-12-14T04:31:08.608Z,10.00
2022-12-14T04:33:46.816Z,10.60
2022-12-14T04:36:23.163Z,8.73
2022-12-14T04:38:58.586Z,9.68
2022-12-14T04:41:32.105Z,9.95
2022-12-14T04:44:03.483Z,10.57
2022-12-14T04:46:40.555Z,9.00
2022-12-14T04:49:24.941Z,10.50
2022-12-14T04:52:07.685Z,9.70
2022-12-14T04:54:42.505Z,8.70
2022-12-14T04:57:35.978Z,9.25
2022-12-14T05:00:05.574Z,9.65
2022-12-14T05:02:51.682Z,9.02
2022-12-14T05:05:25.095Z,8.60
2022-12-14T05:07:58.193Z,10.15
2022-12-14T05:10:41.064Z,9.45
2022-12-14T05:13:24.735Z,9.23
2022-12-14T05:15:55.064Z,9.00
2022-12-14T05:18:22.834Z,7.85
2022-12-14T05:20:50.777Z,8.73
2022-12-14T05:23:18.526Z,10.43
2022-12-14T05:25:45.750Z,8.93
2022-12-14T05:28:16.493Z,10.27
2022-12-14T05:30:48.837Z,9.38
2022-12-14T05:33:20.700Z,9.60
2022-12-14T05:35:48.021Z,8.55
2022-12-14T05:38:15.284Z,9.30
2022-12-14T05:40:42.498Z,16.75
2022-12-14T05:43:12.258Z,20.50
2022-12-14T05:45:39.638Z,18.65
2022-12-14T05:48:07.022Z,21.08
2022-12-14T05:50:34.308Z,14.10
2022-12-14T05:53:01.565Z,13.35
2022-12-14T05:55:28.767Z,15.18
2022-12-14T05:57:56.440Z,15.15
2022-12-14T06:00:23.680Z,13.07
2022-12-14T06:02:50.995Z,14.38
2022-12-14T06:05:18.297Z,16.85
2022-12-14T06:07:45.578Z,11.90
2022-12-14T06:10:12.836Z,17.67
2022-12-14T06:12:40.089Z,13.13
2022-12-14T06:15:07.833Z,15.10
2022-12-14T06:17:35.065Z,12.57
2022-12-14T06:20:02.663Z,11.70
2022-12-14T06:22:29.996Z,12.07
2022-12-14T06:24:57.277Z,10.40
2022-12-14T06:27:24.525Z,11.82
2022-12-14T06:29:51.731Z,13.10
2022-12-14T06:32:19.019Z,11.23
2022-12-14T06:34:46.924Z,11.38
2022-12-14T06:37:14.948Z,11.07
2022-12-14T06:39:42.201Z,11.88
2022-12-14T06:42:11.483Z,11.38
2022-12-14T06:44:38.721Z,11.23
2022-12-14T06:47:06.055Z,10.40
2022-12-14T06:49:33.433Z,12.30
2022-12-14T06:52:00.717Z,12.20
2022-12-14T06:54:28.049Z,11.52
2022-12-14T06:56:55.272Z,11.70
2022-12-14T06:59:22.616Z,10.85
2022-12-14T07:01:50.399Z,9.45
2022-12-14T07:04:21.075Z,11.50
2022-12-14T07:06:48.525Z,11.60
2022-12-14T07:09:15.855Z,9.93
2022-12-14T07:11:43.157Z,11.48
2022-12-14T07:14:16.655Z,10.75
2022-12-14T07:16:48.274Z,10.80
2022-12-14T07:19:16.456Z,10.90
2022-12-14T07:21:43.762Z,10.25
2022-12-14T07:24:11.033Z,10.75
2022-12-14T07:26:38.427Z,10.45
2022-12-14T07:29:06.623Z,12.65
2022-12-14T07:31:33.988Z,9.93
2022-12-14T07:34:01.391Z,11.15
2022-12-14T07:36:30.065Z,10.07
2022-12-14T07:38:57.776Z,10.13
2022-12-14T07:41:28.122Z,9.63
2022-12-14T07:43:56.615Z,10.52
2022-12-14T07:46:27.406Z,11.43
2022-12-14T07:48:57.478Z,10.43
2022-12-14T07:51:33.247Z,10.10
2022-12-14T07:54:01.650Z,9.60
2022-12-14T07:56:31.774Z,9.15
2022-12-14T07:59:01.012Z,10.65
2022-12-14T08:01:36.860Z,10.75
2022-12-14T08:04:10.382Z,9.55
2022-12-14T08:06:38.248Z,8.88
2022-12-14T08:09:06.875Z,10.07
2022-12-14T08:11:34.700Z,10.27
2022-12-14T08:14:04.812Z,9.38
2022-12-14T08:16:32.732Z,10.20
2022-12-14T08:19:01.397Z,8.45
2022-12-14T08:21:29.344Z,9.38
2022-12-14T08:23:57.413Z,9.63
2022-12-14T08:26:30.160Z,8.60
2022-12-14T08:29:00.935Z,10.40
2022-12-14T08:31:28.833Z,10.05
2022-12-14T08:33:58.168Z,9.85
2022-12-14T08:36:28.265Z,9.95
2022-12-14T08:38:57.334Z,9.20
2022-12-14T08:41:26.023Z,10.23
2022-12-14T08:43:55.584Z,11.13
2022-12-14T08:46:24.622Z,7.90
2022-12-14T08:48:55.028Z,10.10
2022-12-14T08:51:24.667Z,10.02
2022-12-14T08:53:52.995Z,8.68
2022-12-14T08:56:23.237Z,9.55
2022-12-14T08:58:50.592Z,8.80
2022-12-14T09:01:29.954Z,9.10
2022-12-14T09:04:07.725Z,9.73
2022-12-14T09:06:37.835Z,9.48
2022-12-14T09:09:10.689Z,9.40
2022-12-14T09:11:42.914Z,8.57
2022-12-14T09:14:10.741Z,8.40
2022-12-14T09:16:38.095Z,9.77
2022-12-14T09:19:06.105Z,8.60
2022-12-14T09:21:33.993Z,9.55
2022-12-14T09:24:01.662Z,9.68
2022-12-14T09:26:29.744Z,9.52
2022-12-14T09:28:58.330Z,9.23
2022-12-14T09:31:28.010Z,8.35
2022-12-14T09:33:56.736Z,9.30
2022-12-14T09:36:27.478Z,8.02
2022-12-14T09:38:55.395Z,8.77
2022-12-14T09:41:34.654Z,9.15
2022-12-14T09:44:20.798Z,8.63
2022-12-14T09:47:12.200Z,8.93
2022-12-14T09:49:49.440Z,9.57
2022-12-14T09:52:40.206Z,9.27
2022-12-14T09:55:16.564Z,9.02
2022-12-14T09:57:45.160Z,9.13
2022-12-14T10:00:19.055Z,8.43
2022-12-14T10:03:11.415Z,8.27
2022-12-14T10:06:17.675Z,10.40
2022-12-14T10:08:54.961Z,8.48
2022-12-14T10:11:59.037Z,8.60
2022-12-14T10:14:42.690Z,8.68
2022-12-14T10:17:11.530Z,8.20
2022-12-14T10:19:50.939Z,8.52
2022-12-14T10:22:29.263Z,8.75
2022-12-14T10:25:06.884Z,8.30
2022-12-14T10:27:54.184Z,7.85
2022-12-14T10:30:22.998Z,8.60
2022-12-14T10:33:11.318Z,9.25
2022-12-14T10:35:50.602Z,8.40
2022-12-14T10:38:30.420Z,8.38
2022-12-14T10:41:12.167Z,8.07
2022-12-14T10:43:47.993Z,8.32
2022-12-14T10:46:26.924Z,7.70
2022-12-14T10:49:02.396Z,8.10
2022-12-14T10:52:04.522Z,8.45
2022-12-14T10:54:57.193Z,8.30
2022-12-14T10:57:29.276Z,8.23
2022-12-14T11:00:08.354Z,7.72
2022-12-14T11:02:43.142Z,8.60
2022-12-14T11:05:35.739Z,8.27
2022-12-14T11:08:05.085Z,8.57
2022-12-14T11:10:34.706Z,7.53
2022-12-14T11:13:21.401Z,7.45
2022-12-14T11:15:51.039Z,7.85
2022-12-14T11:18:19.749Z,7.30
2022-12-14T11:21:05.444Z,6.97
2022-12-14T11:23:46.036Z,7.03
2022-12-14T11:26:47.352Z,7.95
2022-12-14T11:29:21.835Z,8.15
2022-12-14T11:31:53.926Z,8.00
2022-12-14T11:34:33.265Z,8.35
2022-12-14T11:37:23.602Z,8.15
2022-12-14T11:39:54.264Z,7.43
2022-12-14T11:42:22.346Z,7.18
2022-12-14T11:44:51.270Z,7.63
2022-12-14T11:47:23.789Z,6.80
2022-12-14T11:49:56.718Z,7.47
2022-12-14T11:52:26.719Z,7.80
2022-12-14T11:54:57.000Z,7.45
2022-12-14T11:57:30.895Z,7.88
2022-12-14T12:00:21.596Z,7.45
2022-12-14T12:03:02.702Z,7.70
2022-12-14T12:05:38.870Z,8.13
2022-12-14T12:08:17.258Z,8.07
2022-12-14T12:10:49.893Z,7.90
2022-12-14T12:13:24.140Z,8.00
2022-12-14T12:15:58.040Z,8.43
2022-12-14T12:18:40.366Z,7.57
2022-12-14T12:21:17.526Z,8.43
2022-12-14T12:23:48.407Z,7.72
2022-12-14T12:26:25.458Z,6.50
2022-12-14T12:29:05.214Z,7.43
2022-12-14T12:31:40.694Z,6.85
2022-12-14T12:34:21.952Z,6.93
2022-12-14T12:37:17.468Z,7.18
2022-12-14T12:39:41.359Z,6.50
2022-12-14T12:42:40.457Z,6.47
2022-12-14T12:45:35.920Z,6.95
2022-12-14T12:50:35.407Z,6.25
2022-12-14T12:53:28.336Z,6.20
2022-12-14T12:56:05.546Z,7.50
2022-12-14T12:58:35.526Z,6.40
2022-12-14T13:01:17.319Z,5.68
2022-12-14T13:03:48.675Z,7.90
2022-12-14T13:06:27.587Z,6.60
2022-12-14T13:08:58.903Z,7.18
2022-12-14T13:11:39.566Z,6.68
2022-12-14T13:14:12.689Z,6.15
2022-12-14T13:16:42.191Z,5.35
2022-12-14T13:19:50.643Z,5.70
2022-12-14T13:22:07.192Z,6.28
2022-12-14T13:24:36.927Z,6.50
2022-12-14T13:27:31.941Z,5.50
2022-12-14T13:30:13.565Z,5.60
2022-12-14T13:33:05.034Z,5.40
2022-12-14T13:36:01.868Z,5.28
2022-12-14T13:38:51.533Z,6.35
2022-12-14T13:41:31.471Z,5.53
2022-12-14T13:44:31.937Z,8.23
2022-12-14T13:47:06.532Z,8.20
2022-12-14T13:49:34.395Z,5.82
2022-12-14T13:52:01.917Z,6.00
2022-12-14T13:54:37.881Z,6.68
2022-12-14T13:57:20.580Z,6.45
2022-12-14T13:59:53.534Z,7.15
2022-12-14T14:02:32.889Z,7.30
2022-12-14T14:05:15.361Z,5.75
2022-12-14T14:08:03.162Z,8.63
2022-12-14T14:10:38.346Z,8.95
2022-12-14T14:13:28.630Z,6.30
2022-12-14T14:16:27.481Z,5.32
2022-12-14T14:19:16.577Z,5.40
2022-12-14T14:22:25.466Z,6.15
2022-12-14T14:25:25.915Z,6.15
2022-12-14T14:27:54.708Z,5.50
2022-12-14T14:30:29.943Z,5.80
2022-12-14T14:33:19.885Z,16.48
2022-12-14T14:35:45.467Z,6.63
2022-12-14T14:38:31.760Z,10.23
2022-12-14T14:41:18.996Z,12.80
2022-12-14T14:44:03.223Z,14.63
2022-12-14T14:46:47.812Z,9.85
2022-12-14T14:49:23.003Z,11.35
2022-12-14T14:51:50.399Z,12.95
2022-12-14T14:54:44.865Z,14.15
2022-12-14T14:57:35.995Z,12.02
2022-12-14T15:00:12.951Z,8.02
2022-12-14T15:02:42.911Z,12.38
2022-12-14T15:05:43.483Z,6.90
2022-12-14T15:08:37.892Z,15.82
2022-12-14T15:11:14.421Z,8.00
2022-12-14T15:14:06.721Z,10.82
2022-12-14T15:16:43.249Z,14.75
2022-12-14T15:19:38.434Z,15.68
2022-12-14T15:22:08.665Z,23.88
2022-12-14T15:24:43.013Z,25.08
2022-12-14T15:27:31.628Z,15.80
2022-12-14T15:30:06.575Z,17.95
2022-12-14T15:32:34.263Z,19.17
2022-12-14T15:35:15.247Z,25.75
2022-12-14T15:37:50.034Z,21.85
2022-12-14T15:40:30.493Z,18.08
2022-12-14T15:43:01.272Z,18.17
2022-12-14T15:45:41.887Z,15.45
2022-12-14T15:48:16.305Z,21.83
2022-12-14T15:50:49.635Z,13.18
2022-12-14T15:53:33.020Z,13.65
2022-12-14T15:56:10.029Z,12.32
2022-12-14T15:58:40.873Z,12.05
2022-12-14T16:01:18.784Z,15.05
2022-12-14T16:03:55.205Z,12.80
2022-12-14T16:06:25.859Z,14.63
2022-12-14T16:09:02.402Z,13.65
2022-12-14T16:11:37.284Z,14.10
2022-12-14T16:14:26.371Z,11.18
2022-12-14T16:16:54.140Z,13.52
2022-12-14T16:19:28.187Z,10.95
2022-12-14T16:22:26.924Z,9.85
2022-12-14T16:25:09.153Z,9.80
2022-12-14T16:27:42.642Z,8.57
2022-12-14T16:30:34.072Z,10.00
2022-12-14T16:33:18.851Z,9.82
2022-12-14T16:35:57.358Z,8.82
2022-12-14T16:38:24.703Z,10.02
2022-12-14T16:41:01.950Z,14.00
2022-12-14T16:43:39.137Z,9.27
2022-12-14T16:46:06.492Z,10.10
2022-12-14T16:48:36.148Z,8.75
2022-12-14T16:51:38.425Z,11.13
2022-12-14T16:54:32.617Z,9.88
2022-12-14T16:57:21.759Z,9.85
2022-12-14T16:59:57.583Z,10.93
2022-12-14T17:02:43.782Z,9.93
2022-12-14T17:05:20.363Z,9.52
2022-12-14T17:07:47.876Z,13.30
2022-12-14T17:10:23.446Z,13.73
2022-12-14T17:12:53.560Z,11.40
2022-12-14T17:15:22.748Z,14.43
2022-12-14T17:17:53.138Z,13.40
2022-12-14T17:20:25.089Z,12.48
2022-12-14T17:22:53.505Z,13.40
2022-12-14T17:25:21.105Z,15.70
2022-12-14T17:27:49.325Z,11.60
2022-12-14T17:30:19.320Z,12.88
2022-12-14T17:32:47.394Z,14.02
2022-12-14T17:35:19.208Z,13.15
2022-12-14T17:37:47.223Z,13.55
2022-12-14T17:40:16.916Z,12.93
2022-12-14T17:42:49.396Z,14.40
2022-12-14T17:45:23.833Z,13.60
2022-12-14T17:47:51.174Z,11.63
2022-12-14T17:50:19.478Z,12.70
2022-12-14T17:52:47.696Z,12.10
2022-12-14T17:55:26.822Z,12.73
2022-12-14T17:57:55.328Z,12.98
2022-12-14T18:00:46.957Z,13.75
2022-12-14T18:03:15.994Z,12.27
2022-12-14T18:05:48.691Z,12.77
2022-12-14T18:08:20.573Z,13.20
2022-12-14T18:10:53.084Z,12.85
2022-12-14T18:13:20.315Z,13.43
2022-12-14T18:15:50.690Z,13.70
2022-12-14T18:18:20.326Z,12.90
2022-12-14T18:20:54.123Z,14.10
2022-12-14T18:23:22.614Z,13.77
2022-12-14T18:25:55.813Z,11.98
2022-12-14T18:28:23.827Z,12.23
2022-12-14T18:31:00.036Z,12.68
2022-12-14T18:33:28.787Z,13.02
2022-12-14T18:35:57.494Z,12.32
2022-12-14T18:38:25.557Z,14.20
2022-12-14T18:40:54.983Z,12.93
2022-12-14T18:43:27.899Z,15.00
2022-12-14T18:45:56.595Z,13.63
2022-12-14T18:48:25.118Z,14.32
2022-12-14T18:50:54.287Z,15.27
2022-12-14T18:53:23.581Z,13.93
2022-12-14T18:55:51.646Z,14.88
2022-12-14T18:58:27.855Z,16.42
2022-12-14T19:00:58.756Z,16.40
2022-12-14T19:03:29.552Z,17.30
2022-12-14T19:06:42.287Z,14.95
2022-12-14T19:08:57.107Z,15.48
2022-12-14T19:11:34.362Z,18.35
2022-12-14T19:14:02.326Z,17.77
2022-12-14T19:16:29.744Z,48.00
2022-12-14T19:18:57.121Z,20.52
2022-12-14T19:21:26.287Z,19.60
2022-12-14T19:23:53.692Z,18.33
2022-12-14T19:26:21.585Z,16.45
2022-12-14T19:28:49.062Z,15.57
2022-12-14T19:31:16.449Z,19.27
2022-12-14T19:33:43.751Z,15.90
2022-12-14T19:36:11.403Z,15.63
2022-12-14T19:38:38.760Z,16.27
2022-12-14T19:41:09.963Z,17.55
2022-12-14T19:43:37.294Z,15.70
2022-12-14T19:46:12.039Z,17.65
2022-12-14T19:48:39.883Z,15.55
2022-12-14T19:51:10.574Z,15.75
2022-12-14T19:53:39.392Z,16.23
2022-12-14T19:56:06.988Z,15.95
2022-12-14T19:58:34.450Z,16.75
2022-12-14T20:01:01.788Z,14.90
2022-12-14T20:03:29.969Z,16.77
2022-12-14T20:05:59.634Z,16.25
2022-12-14T20:08:31.090Z,16.05
2022-12-14T20:10:59.241Z,15.63
2022-12-14T20:13:28.251Z,15.55
2022-12-14T20:16:01.961Z,15.30
2022-12-14T20:18:30.673Z,14.70
2022-12-14T20:21:06.104Z,14.82
2022-12-14T20:23:37.731Z,14.35
2022-12-14T20:26:09.522Z,17.73
2022-12-14T20:28:37.083Z,15.20
2022-12-14T20:31:09.322Z,16.13
2022-12-14T20:33:38.382Z,16.75
2022-12-14T20:36:06.491Z,19.58
2022-12-14T20:38:33.933Z,17.10
2022-12-14T20:41:09.643Z,16.83
2022-12-14T20:43:39.020Z,16.33
2022-12-14T20:46:07.058Z,18.88
2022-12-14T20:48:34.358Z,15.68
2022-12-14T20:51:02.967Z,16.88
2022-12-14T20:53:31.085Z,16.67
2022-12-14T20:56:04.829Z,18.42
2022-12-14T20:58:32.204Z,17.70
2022-12-14T21:01:07.202Z,16.98
2022-12-14T21:03:35.536Z,15.90
2022-12-14T21:06:03.233Z,16.02
2022-12-14T21:08:31.667Z,16.05
2022-12-14T21:11:21.782Z,14.73
2022-12-14T21:13:49.069Z,18.98
2022-12-14T21:16:16.591Z,17.40
2022-12-14T21:18:43.859Z,16.33
2022-12-14T21:21:11.095Z,15.93
2022-12-14T21:23:41.577Z,15.80
2022-12-14T21:26:08.864Z,16.30
2022-12-14T21:28:36.101Z,13.95
2022-12-14T21:31:05.470Z,14.55
2022-12-14T21:33:35.688Z,11.88
2022-12-14T21:36:09.948Z,12.57
2022-12-14T21:38:37.948Z,13.77
2022-12-14T21:41:25.050Z,11.13
2022-12-14T21:43:53.112Z,11.02
2022-12-14T21:46:23.605Z,12.30
2022-12-14T21:48:53.980Z,10.88
2022-12-14T21:51:21.369Z,12.60
2022-12-14T21:54:00.320Z,11.40
2022-12-14T21:56:54.596Z,12.60
2022-12-14T21:59:32.011Z,10.15
2022-12-14T22:02:08.741Z,11.45
2022-12-14T22:04:39.763Z,9.75
2022-12-14T22:07:07.646Z,10.48
2022-12-14T22:09:34.950Z,10.15
2022-12-14T22:12:02.213Z,11.82
2022-12-14T22:14:29.434Z,11.00
2022-12-14T22:16:56.765Z,10.07
2022-12-14T22:19:25.006Z,9.98
2022-12-14T22:21:53.216Z,10.18
2022-12-14T22:24:22.360Z,10.00
2022-12-14T22:26:50.299Z,10.13
2022-12-14T22:29:19.569Z,10.30
2022-12-14T22:31:46.909Z,9.95
2022-12-14T22:34:20.524Z,9.50
2022-12-14T22:36:52.567Z,8.18
2022-12-14T22:39:20.510Z,9.50
2022-12-14T22:41:49.928Z,9.52
2022-12-14T22:44:17.374Z,9.00
2022-12-14T22:46:44.662Z,9.38
2022-12-14T22:49:17.559Z,7.82
2022-12-14T22:51:45.370Z,9.63
2022-12-14T22:54:32.925Z,9.88
2022-12-14T22:57:16.391Z,7.95
2022-12-14T22:59:49.979Z,8.73
2022-12-14T23:02:17.617Z,8.70
2022-12-14T23:04:44.993Z,7.50
2022-12-14T23:07:12.306Z,7.05
2022-12-14T23:09:58.027Z,7.90
2022-12-14T23:12:43.788Z,6.95
2022-12-14T23:15:30.113Z,7.03
2022-12-14T23:18:26.117Z,7.00
2022-12-14T23:21:12.675Z,7.57
2022-12-14T23:24:00.522Z,8.20
2022-12-14T23:26:46.494Z,7.25
2022-12-14T23:29:32.452Z,7.75
2022-12-14T23:32:18.906Z,8.77
2022-12-14T23:35:04.596Z,6.38
2022-12-14T23:37:50.283Z,7.82
2022-12-14T23:40:35.993Z,8.02
2022-12-14T23:43:33.973Z,7.43
2022-12-14T23:46:21.538Z,8.43
2022-12-14T23:49:13.533Z,7.22
2022-12-14T23:52:01.617Z,8.38
2022-12-14T23:54:47.193Z,7.80
2022-12-14T23:57:33.119Z,7.30
